Bakersfield, CA

11:43 PM PDT on August 29, 2014 (GMT -0700)
NE Bakersfield | Change Station
CLOSE
Current Station
Personal Weather Station
Location: Bakersfield, CA
Elevation: 587 ft
Nearby Weather Stations

Elev 587 ft 35.40 °N, 118.98 °W | Updated 12 minutes ago

Clear
Clear
79.5 °F
Feels Like 80 °F
N
0.0
Wind Variable Wind from NW
Gusts 0.0 mph

Today
High -- | Low -- °F
--% Chance of Precip.
Yesterday
High -- | Low -- °F
Precip. -- in
6:26 AM 7:27 PM
Waxing Crescent, 19% visible
Pressure 29.82 in
Visibility 10.0 miles
Clouds Clear
Heat Index 80 °F
Dew Point 54 °F
Humidity 42%
Rainfall 0.00 in
Snow Depth Not available.
UV 0 out of 12
Pollen 9.30 out of 12
PM2.5 Good
Flu Activity Not available.
METAR KBFL 300554Z AUTO 01005KT 10SM CLR 29/07 A2984 RMK AO2 SLP097 T02890067 10372 20278 51012

More Conditions Fewer Conditions

Pressure 29.82 in
Visibility 10.0 miles
Clouds Clear
Heat Index 80 °F
Dew Point 54 °F
Humidity 42%
Rainfall 0.00 in
Snow Depth Not available.
UV 0 out of 12
Pollen 9.30 out of 12
PM2.5 Good
Flu Activity Not available.
METAR KBFL 300554Z AUTO 01005KT 10SM CLR 29/07 A2984 RMK AO2 SLP097 T02890067 10372 20278 51012

More Conditions Fewer Conditions

10-Day Weather Forecast

Almanac

Astronomy

Aug. 29, 2014 Rise Set
Actual Time 6:26 AM PDT 7:27 PM PDT
Civil Twilight 6:00 AM PDT 7:53 PM PDT
Nautical Twilight 5:29 AM PDT 8:23 PM PDT
Astronomical Twilight 4:56 AM PDT 8:55 PM PDT
Moon 10:10 AM PDT (8/29) 9:38 PM PDT (8/29)
Length of Visible Light 13h 53m
Length of Day
13h 00m
Tomorrow will be 2m 7s shorter.
Waxing Crescent, 19% of the Moon is Illuminated
Aug 30
Waxing Crescent
Sep 2
First Quarter
Sep 8
Full
Sep 15
Last Quarter
Sep 24
New

Community

WunderPhotos

Upload Photos

1,748,462 photos uploaded!

Nearby

Air Quality

  Air Quality AQ Index Pollutant
Yesterday Moderate
OZONE
Yesterday Good
PM2.5
Current Good
PM2.5
Friday Moderate
OZONE
Saturday Good
OZONE
Sunday Good
OZONE
Monday Good
OZONE
Tuesday Good
OZONE
Wednesday Good
OZONE

Snow Depth

Station Depth Elevation
Leavitt Lake 0 in 9400 ft
Leavitt Meadows 0 in 7200 ft
Summit Meadow 1 in 9122 ft
Blue Lakes 0 in 8000 ft
Monitor Pass 0 in 8350 ft

Earthquake Activity

City Distance Mag. Time & Date
Orange Cove, California 86 miles 2.5 7:48 AM PDT
2014-08-29
Minimum magnitude displayed is 2.5.

Coastal Water Temperatures

Place Temperature
No Stations Reporting

Nearby Weather Stations